Terminal Aerodrome Forecast
Issued by NWS

Home | Current Version | Previous Version | Text Only | Print | Product List | Glossary On
Versions: 1 2 3 4 5 6 7 8 9 10 11 12 13 14 15 16 17
516
FTUS42 KTAE 181721
TAFECP
TAF
KECP 181721Z 1818/1918 32007KT P6SM SCT050
      TEMPO 1819/1823 VRB15G25KT 2SM TSRA BKN025CB BKN100
     FM190000 28003KT P6SM BKN200
     FM191300 33005KT P6SM FEW030=

USA.gov is the U.S. government's official web portal to all federal, state and local government web resources and services.